createdAt,value
2022-11-04T00:00:12.998Z,1.70
2022-11-04T00:02:39.748Z,1.60
2022-11-04T00:05:06.616Z,1.80
2022-11-04T00:07:51.970Z,1.70
2022-11-04T00:10:38.548Z,1.63
2022-11-04T00:13:05.443Z,1.30
2022-11-04T00:15:55.545Z,1.50
2022-11-04T00:18:22.299Z,1.70
2022-11-04T00:21:07.464Z,1.67
2022-11-04T00:23:53.015Z,1.40
2022-11-04T00:26:38.321Z,1.50
2022-11-04T00:29:05.003Z,1.13
2022-11-04T00:31:50.372Z,1.57
2022-11-04T00:34:17.054Z,1.40
2022-11-04T00:36:43.692Z,1.40
2022-11-04T00:39:10.338Z,1.70
2022-11-04T00:41:36.984Z,1.63
2022-11-04T00:44:05.409Z,1.37
2022-11-04T00:46:33.828Z,1.10
2022-11-04T00:49:00.792Z,2.20
2022-11-04T00:51:29.274Z,1.40
2022-11-04T00:53:58.198Z,1.20
2022-11-04T00:56:25.025Z,1.23
2022-11-04T00:58:52.084Z,1.20
2022-11-04T01:01:19.532Z,1.20
2022-11-04T01:03:51.289Z,1.40
2022-11-04T01:06:20.369Z,1.43
2022-11-04T01:08:48.074Z,1.27
2022-11-04T01:11:15.845Z,1.20
2022-11-04T01:13:42.712Z,1.13
2022-11-04T01:16:11.554Z,1.10
2022-11-04T01:18:38.859Z,1.10
2022-11-04T01:21:06.956Z,1.00
2022-11-04T01:23:37.395Z,1.47
2022-11-04T01:26:13.828Z,1.17
2022-11-04T01:28:40.869Z,1.13
2022-11-04T01:31:13.774Z,1.10
2022-11-04T01:33:40.623Z,1.13
2022-11-04T01:36:08.658Z,1.07
2022-11-04T01:38:35.309Z,1.00
2022-11-04T01:41:02.999Z,1.20
2022-11-04T01:43:44.945Z,1.20
2022-11-04T01:46:22.831Z,1.40
2022-11-04T01:48:50.301Z,1.17
2022-11-04T01:51:17.589Z,1.17
2022-11-04T01:53:44.949Z,1.40
2022-11-04T01:56:14.374Z,1.20
2022-11-04T01:58:46.520Z,1.50
2022-11-04T02:01:13.970Z,1.13
2022-11-04T02:04:25.406Z,1.20
2022-11-04T02:07:00.961Z,1.40
2022-11-04T02:09:30.957Z,1.50
2022-11-04T02:12:16.275Z,1.23
2022-11-04T02:14:44.406Z,1.40
2022-11-04T02:17:19.865Z,1.83
2022-11-04T02:19:55.111Z,1.70
2022-11-04T02:22:36.937Z,1.60
2022-11-04T02:25:26.607Z,1.43
2022-11-04T02:28:05.301Z,1.30
2022-11-04T02:30:44.468Z,1.20
2022-11-04T02:33:23.345Z,1.20
2022-11-04T02:36:00.153Z,1.23
2022-11-04T02:38:36.867Z,1.40
2022-11-04T02:41:25.459Z,1.03
2022-11-04T02:43:57.869Z,1.00
2022-11-04T02:46:35.803Z,1.30
2022-11-04T02:49:15.867Z,1.37
2022-11-04T02:52:00.785Z,1.00
2022-11-04T02:54:35.455Z,1.20
2022-11-04T02:57:07.117Z,1.50
2022-11-04T02:59:47.427Z,2.00
2022-11-04T03:02:18.934Z,1.00
2022-11-04T03:04:52.228Z,1.33
2022-11-04T03:07:25.978Z,1.23
2022-11-04T03:09:58.515Z,1.23
2022-11-04T03:12:30.631Z,1.53
2022-11-04T03:15:04.620Z,1.63
2022-11-04T03:17:41.218Z,1.40
2022-11-04T03:20:15.560Z,1.10
2022-11-04T03:22:42.522Z,1.67
2022-11-04T03:25:10.287Z,1.70
2022-11-04T03:27:58.524Z,1.50
2022-11-04T03:30:25.505Z,1.40
2022-11-04T03:33:09.098Z,1.70
2022-11-04T03:35:35.965Z,1.73
2022-11-04T03:38:02.624Z,1.60
2022-11-04T03:40:29.498Z,1.60
2022-11-04T03:43:00.741Z,1.60
2022-11-04T03:45:28.147Z,1.50
2022-11-04T03:47:56.747Z,1.27
2022-11-04T03:50:39.123Z,1.57
2022-11-04T03:53:06.035Z,1.30
2022-11-04T03:55:59.491Z,1.90
2022-11-04T03:58:37.989Z,1.30
2022-11-04T04:01:17.018Z,1.47
2022-11-04T04:03:55.538Z,1.20
2022-11-04T04:06:31.107Z,1.37
2022-11-04T04:09:21.175Z,1.67
2022-11-04T04:12:16.927Z,1.37
2022-11-04T04:14:50.164Z,1.50
2022-11-04T04:17:52.855Z,1.40
2022-11-04T04:20:23.321Z,1.40
2022-11-04T04:22:52.705Z,1.10
2022-11-04T04:25:39.923Z,1.30
2022-11-04T04:28:08.324Z,1.20
2022-11-04T04:30:36.107Z,1.07
2022-11-04T04:33:20.880Z,1.00
2022-11-04T04:35:53.045Z,1.20
2022-11-04T04:38:49.062Z,1.20
2022-11-04T04:41:37.451Z,1.20
2022-11-04T04:44:24.771Z,0.97
2022-11-04T04:46:54.154Z,1.27
2022-11-04T04:49:20.828Z,1.00
2022-11-04T04:51:48.092Z,1.33
2022-11-04T04:54:15.233Z,1.00
2022-11-04T04:56:41.859Z,0.83
2022-11-04T04:59:08.621Z,1.33
2022-11-04T05:01:35.474Z,1.37
2022-11-04T05:04:02.266Z,1.10
2022-11-04T05:06:32.668Z,1.30
2022-11-04T05:08:59.235Z,1.20
2022-11-04T05:11:27.301Z,1.17
2022-11-04T05:13:54.493Z,1.23
2022-11-04T05:16:23.782Z,1.27
2022-11-04T05:18:52.053Z,1.20
2022-11-04T05:21:19.184Z,1.37
2022-11-04T05:23:45.844Z,1.10
2022-11-04T05:26:12.530Z,1.17
2022-11-04T05:28:39.153Z,1.10
2022-11-04T05:31:07.080Z,1.13
2022-11-04T05:33:33.869Z,1.00
2022-11-04T05:36:07.577Z,1.47
2022-11-04T05:38:34.217Z,1.10
2022-11-04T05:41:00.821Z,1.00
2022-11-04T05:43:27.893Z,0.97
2022-11-04T05:45:55.191Z,1.20
2022-11-04T05:48:21.799Z,0.90
2022-11-04T05:50:48.536Z,1.10
2022-11-04T05:53:15.210Z,0.93
2022-11-04T05:55:42.066Z,1.23
2022-11-04T05:58:08.872Z,1.33
2022-11-04T06:00:35.876Z,1.10
2022-11-04T06:03:03.061Z,1.10
2022-11-04T06:05:30.344Z,1.10
2022-11-04T06:07:57.102Z,0.90
2022-11-04T06:10:24.189Z,1.47
2022-11-04T06:12:51.217Z,1.13
2022-11-04T06:15:17.936Z,3.07
2022-11-04T06:17:44.528Z,2.70
2022-11-04T06:20:11.328Z,1.60
2022-11-04T06:22:37.982Z,1.73
2022-11-04T06:25:04.979Z,2.90
2022-11-04T06:27:31.727Z,2.17
2022-11-04T06:29:58.371Z,1.80
2022-11-04T06:32:25.093Z,1.80
2022-11-04T06:34:51.710Z,1.70
2022-11-04T06:37:18.324Z,3.73
2022-11-04T06:39:45.496Z,1.83
2022-11-04T06:42:12.138Z,1.60
2022-11-04T06:44:38.822Z,1.50
2022-11-04T06:47:05.496Z,1.90
2022-11-04T06:49:32.247Z,1.77
2022-11-04T06:51:58.946Z,1.53
2022-11-04T06:54:25.580Z,1.90
2022-11-04T06:56:52.168Z,3.60
2022-11-04T06:59:21.129Z,2.13
2022-11-04T07:01:50.409Z,1.90
2022-11-04T07:04:17.498Z,1.83
2022-11-04T07:06:44.833Z,1.80
2022-11-04T07:09:16.046Z,1.50
2022-11-04T07:11:44.235Z,3.13
2022-11-04T07:14:12.350Z,3.40
2022-11-04T07:16:39.106Z,1.83
2022-11-04T07:19:06.411Z,1.90
2022-11-04T07:21:33.116Z,1.60
2022-11-04T07:24:01.043Z,1.80
2022-11-04T07:26:27.742Z,1.60
2022-11-04T07:28:54.404Z,2.60
2022-11-04T07:31:22.155Z,1.63
2022-11-04T07:33:51.141Z,1.77
2022-11-04T07:36:18.822Z,1.67
2022-11-04T07:38:45.929Z,1.80
2022-11-04T07:41:14.021Z,1.90
2022-11-04T07:43:40.708Z,1.43
2022-11-04T07:46:12.548Z,1.40
2022-11-04T07:48:39.241Z,1.90
2022-11-04T07:51:08.261Z,2.20
2022-11-04T07:53:34.919Z,1.63
2022-11-04T07:56:06.171Z,1.67
2022-11-04T07:58:33.433Z,1.43
2022-11-04T08:01:01.785Z,1.80
2022-11-04T08:03:28.841Z,1.60
2022-11-04T08:05:59.990Z,1.87
2022-11-04T08:08:28.419Z,1.57
2022-11-04T08:10:58.579Z,1.30
2022-11-04T08:13:28.029Z,1.43
2022-11-04T08:15:55.129Z,1.40
2022-11-04T08:18:21.939Z,1.80
2022-11-04T08:20:50.404Z,1.70
2022-11-04T08:23:17.577Z,1.60
2022-11-04T08:25:44.759Z,1.63
2022-11-04T08:28:17.607Z,1.70
2022-11-04T08:30:58.441Z,2.00
2022-11-04T08:33:26.690Z,1.70
2022-11-04T08:35:55.087Z,11.17
2022-11-04T08:38:21.882Z,15.37
2022-11-04T08:40:48.624Z,5.37
2022-11-04T08:43:15.363Z,3.00
2022-11-04T08:45:45.190Z,3.00
2022-11-04T08:48:13.568Z,1.60
2022-11-04T08:50:40.293Z,1.70
2022-11-04T08:53:07.182Z,7.83
2022-11-04T08:55:34.888Z,3.77
2022-11-04T08:58:02.554Z,2.67
2022-11-04T09:00:29.532Z,2.13
2022-11-04T09:02:56.182Z,1.80
2022-11-04T09:05:22.948Z,1.50
2022-11-04T09:07:49.675Z,1.43
2022-11-04T09:10:17.268Z,2.00
2022-11-04T09:12:45.019Z,1.83
2022-11-04T09:15:12.670Z,1.63
2022-11-04T09:17:39.426Z,1.33
2022-11-04T09:20:07.300Z,1.77
2022-11-04T09:22:34.089Z,1.80
2022-11-04T09:25:00.877Z,2.60
2022-11-04T09:27:28.237Z,1.43
2022-11-04T09:29:54.848Z,1.37
2022-11-04T09:32:21.515Z,1.40
2022-11-04T09:34:48.189Z,3.03
2022-11-04T09:37:15.982Z,2.53
2022-11-04T09:39:42.680Z,2.30
2022-11-04T09:42:18.630Z,1.73
2022-11-04T09:45:22.797Z,1.40
2022-11-04T09:47:52.461Z,1.50
2022-11-04T09:50:24.430Z,1.07
2022-11-04T09:53:03.960Z,1.10
2022-11-04T09:55:47.014Z,1.03
2022-11-04T09:58:14.766Z,1.33
2022-11-04T10:00:46.197Z,1.43
2022-11-04T10:03:28.307Z,1.20
2022-11-04T10:06:25.214Z,1.10
2022-11-04T10:08:57.590Z,1.03
2022-11-04T10:11:47.178Z,1.20
2022-11-04T10:14:35.611Z,1.10
2022-11-04T10:17:17.819Z,1.10
2022-11-04T10:20:08.954Z,1.47
2022-11-04T10:22:50.397Z,1.20
2022-11-04T10:25:23.301Z,3.50
2022-11-04T10:27:51.456Z,20.63
2022-11-04T10:30:23.940Z,1.70
2022-11-04T10:33:03.587Z,13.73
2022-11-04T10:35:45.274Z,23.40
2022-11-04T10:38:22.805Z,1.50
2022-11-04T10:40:52.247Z,1.20
2022-11-04T10:43:24.193Z,1.60
2022-11-04T10:46:45.046Z,1.00
2022-11-04T10:49:37.936Z,1.20
2022-11-04T10:52:08.325Z,1.60
2022-11-04T10:54:44.502Z,1.40
2022-11-04T10:57:16.846Z,1.03
2022-11-04T10:59:52.877Z,2.30
2022-11-04T11:02:43.871Z,2.13
2022-11-04T11:05:14.453Z,1.10
2022-11-04T11:07:41.140Z,1.40
2022-11-04T11:10:18.646Z,1.13
2022-11-04T11:12:52.735Z,1.10
2022-11-04T11:15:27.207Z,1.40
2022-11-04T11:18:03.487Z,2.73
2022-11-04T11:20:32.493Z,6.47
2022-11-04T11:23:04.875Z,3.77
2022-11-04T11:25:34.049Z,6.17
2022-11-04T11:28:08.919Z,1.60
2022-11-04T11:30:46.006Z,4.87
2022-11-04T11:33:28.400Z,3.67
2022-11-04T11:35:59.983Z,10.23
2022-11-04T11:38:29.043Z,1.63
2022-11-04T11:41:25.771Z,1.30
2022-11-04T11:43:55.170Z,1.50
2022-11-04T11:46:30.754Z,2.10
2022-11-04T11:49:01.451Z,2.27
2022-11-04T11:51:31.965Z,1.30
2022-11-04T11:54:23.116Z,1.33
2022-11-04T12:02:42.193Z,1.50
2022-11-04T12:11:34.835Z,2.30
2022-11-04T12:14:11.413Z,1.40
2022-11-04T12:16:46.955Z,1.30
2022-11-04T12:19:37.993Z,1.10
2022-11-04T12:22:17.314Z,1.40
2022-11-04T12:24:43.956Z,1.10
2022-11-04T12:27:47.510Z,1.30
2022-11-04T12:30:21.183Z,1.60
2022-11-04T12:33:14.598Z,1.30
2022-11-04T12:36:02.580Z,1.20
2022-11-04T12:38:42.002Z,1.37
2022-11-04T12:44:03.143Z,1.70
2022-11-04T12:46:51.791Z,1.47
2022-11-04T12:49:24.211Z,1.67
2022-11-04T12:52:11.540Z,1.50
2022-11-04T12:54:52.785Z,1.60
2022-11-04T12:58:16.667Z,1.97
2022-11-04T13:00:48.305Z,1.60
2022-11-04T13:03:22.285Z,1.60
2022-11-04T13:05:58.260Z,1.50
2022-11-04T13:08:31.747Z,1.63
2022-11-04T13:11:29.745Z,1.20
2022-11-04T13:14:01.847Z,1.50
2022-11-04T13:16:31.603Z,1.77
2022-11-04T13:18:58.988Z,1.40
2022-11-04T13:21:30.173Z,1.30
2022-11-04T13:24:11.267Z,1.13
2022-11-04T13:26:37.992Z,1.37
2022-11-04T13:29:12.125Z,1.40
2022-11-04T13:31:46.638Z,1.03
2022-11-04T13:34:25.812Z,1.40
2022-11-04T13:37:08.544Z,2.07
2022-11-04T13:39:41.097Z,2.23
2022-11-04T13:42:39.858Z,1.80
2022-11-04T13:45:12.124Z,1.53
2022-11-04T13:47:50.390Z,1.57
2022-11-04T13:50:35.415Z,1.60
2022-11-04T13:53:07.210Z,1.33
2022-11-04T13:55:35.805Z,1.47
2022-11-04T13:58:05.110Z,1.20
2022-11-04T14:00:33.438Z,1.50
2022-11-04T14:03:21.142Z,1.37
2022-11-04T14:06:03.337Z,1.70
2022-11-04T14:08:30.946Z,1.13
2022-11-04T14:11:01.499Z,1.50
2022-11-04T14:13:34.795Z,1.10
2022-11-04T14:16:17.793Z,1.03
2022-11-04T14:18:47.222Z,1.00
2022-11-04T14:21:21.959Z,1.13
2022-11-04T14:23:52.684Z,1.10
2022-11-04T14:26:23.361Z,1.27
2022-11-04T14:29:02.231Z,1.10
2022-11-04T14:31:49.508Z,1.30
2022-11-04T14:34:44.460Z,1.30
2022-11-04T14:37:28.971Z,1.30
2022-11-04T14:39:58.836Z,1.30
2022-11-04T14:42:52.649Z,1.40
2022-11-04T14:45:25.754Z,1.40
2022-11-04T14:47:57.093Z,1.57
2022-11-04T14:50:27.134Z,1.43
2022-11-04T14:53:03.615Z,2.03
2022-11-04T14:55:31.818Z,1.47
2022-11-04T14:58:20.091Z,1.77
2022-11-04T15:00:49.502Z,1.60
2022-11-04T15:06:11.318Z,1.97
2022-11-04T15:08:42.947Z,1.80
2022-11-04T15:11:17.906Z,2.07
2022-11-04T15:13:56.523Z,2.30
2022-11-04T15:16:26.876Z,3.67
2022-11-04T15:18:56.174Z,2.37
2022-11-04T15:21:23.769Z,2.50
2022-11-04T15:23:53.065Z,2.40
2022-11-04T15:26:29.351Z,2.30
2022-11-04T15:28:57.729Z,2.33
2022-11-04T15:31:28.356Z,2.60
2022-11-04T15:33:57.960Z,2.70
2022-11-04T15:36:28.289Z,2.80
2022-11-04T15:39:23.505Z,3.00
2022-11-04T15:42:14.367Z,3.30
2022-11-04T15:44:46.625Z,3.90
2022-11-04T15:47:19.933Z,4.20
2022-11-04T15:49:48.436Z,4.73
2022-11-04T15:52:17.231Z,8.73
2022-11-04T15:54:47.803Z,7.00
2022-11-04T15:57:18.171Z,7.23
2022-11-04T15:59:58.449Z,5.80
2022-11-04T16:02:34.409Z,7.30
2022-11-04T16:05:17.331Z,6.77
2022-11-04T16:07:49.287Z,4.73
2022-11-04T16:10:27.661Z,4.40
2022-11-04T16:13:20.072Z,4.10
2022-11-04T16:15:48.802Z,4.33
2022-11-04T16:18:41.686Z,5.03
2022-11-04T16:21:14.175Z,2.70
2022-11-04T16:23:47.479Z,3.80
2022-11-04T16:26:14.929Z,3.60
2022-11-04T16:28:42.608Z,3.27
2022-11-04T16:31:25.548Z,3.30
2022-11-04T16:33:52.350Z,2.50
2022-11-04T16:36:26.113Z,1.77
2022-11-04T16:39:02.831Z,2.07
2022-11-04T16:41:33.688Z,2.63
2022-11-04T16:44:00.397Z,2.83
2022-11-04T16:46:28.364Z,2.50
2022-11-04T16:48:55.178Z,2.47
2022-11-04T16:51:23.441Z,1.90
2022-11-04T16:53:52.259Z,1.80
2022-11-04T16:56:24.888Z,2.53
2022-11-04T16:58:52.216Z,2.60
2022-11-04T17:01:19.676Z,2.87
2022-11-04T17:03:46.575Z,3.30
2022-11-04T17:06:15.003Z,3.90
2022-11-04T17:08:42.585Z,3.40
2022-11-04T17:11:10.583Z,3.40
2022-11-04T17:13:37.989Z,3.33
2022-11-04T17:16:12.901Z,1.90
2022-11-04T17:18:39.687Z,1.40
2022-11-04T17:21:08.279Z,1.53
2022-11-04T17:23:35.090Z,1.50
2022-11-04T17:26:01.741Z,2.30
2022-11-04T17:28:28.374Z,3.23
2022-11-04T17:30:56.110Z,3.63
2022-11-04T17:33:23.026Z,3.80
2022-11-04T17:35:51.294Z,4.00
2022-11-04T17:38:18.490Z,4.60
2022-11-04T17:41:04.427Z,4.87
2022-11-04T17:43:50.289Z,5.33
2022-11-04T17:46:36.758Z,6.07
2022-11-04T17:49:22.052Z,5.77
2022-11-04T17:51:51.214Z,7.57
2022-11-04T17:54:18.067Z,5.90
2022-11-04T17:56:44.948Z,4.57
2022-11-04T17:59:13.261Z,4.93
2022-11-04T18:01:41.050Z,6.50
2022-11-04T18:04:13.750Z,4.63
2022-11-04T18:06:40.399Z,4.77
2022-11-04T18:09:07.448Z,5.70
2022-11-04T18:11:52.499Z,7.33
2022-11-04T18:14:19.155Z,6.63
2022-11-04T18:16:47.862Z,6.63
2022-11-04T18:19:15.906Z,6.63
2022-11-04T18:21:42.535Z,6.47
2022-11-04T18:24:09.685Z,5.77
2022-11-04T18:26:36.735Z,7.33
2022-11-04T18:29:04.451Z,6.50
2022-11-04T18:31:33.502Z,8.57
2022-11-04T18:34:02.324Z,8.07
2022-11-04T18:36:33.663Z,8.73
2022-11-04T18:39:01.222Z,7.50
2022-11-04T18:41:28.527Z,7.17
2022-11-04T18:43:55.153Z,8.23
2022-11-04T18:46:21.815Z,8.47
2022-11-04T18:48:50.234Z,9.80
2022-11-04T18:51:19.997Z,11.00
2022-11-04T18:53:46.853Z,11.87
2022-11-04T18:56:16.152Z,10.33
2022-11-04T18:58:44.969Z,12.10
2022-11-04T19:01:31.906Z,11.33
2022-11-04T19:03:59.321Z,13.83
2022-11-04T19:06:31.754Z,12.60
2022-11-04T19:09:05.038Z,12.63
2022-11-04T19:11:42.595Z,13.77
2022-11-04T19:14:14.282Z,14.20
2022-11-04T19:16:42.490Z,16.20
2022-11-04T19:19:13.727Z,13.40
2022-11-04T19:21:40.522Z,11.57
2022-11-04T19:24:08.084Z,8.37
2022-11-04T19:26:36.092Z,9.07
2022-11-04T19:29:06.273Z,8.40
2022-11-04T19:31:33.302Z,8.30
2022-11-04T19:34:04.959Z,7.10
2022-11-04T19:36:33.534Z,6.97
2022-11-04T19:39:00.738Z,9.00
2022-11-04T19:41:46.605Z,9.40
2022-11-04T19:44:16.060Z,9.20
2022-11-04T19:46:43.728Z,11.33
2022-11-04T19:49:12.532Z,13.73
2022-11-04T19:51:39.758Z,13.20
2022-11-04T19:54:07.097Z,10.27
2022-11-04T19:56:36.336Z,10.77
2022-11-04T19:59:07.451Z,10.20
2022-11-04T20:01:35.449Z,9.43
2022-11-04T20:04:03.788Z,8.20
2022-11-04T20:06:32.143Z,8.53
2022-11-04T20:09:04.458Z,8.90
2022-11-04T20:11:32.951Z,9.07
2022-11-04T20:14:04.760Z,8.93
2022-11-04T20:16:39.238Z,8.80
2022-11-04T20:19:06.077Z,9.03
2022-11-04T20:21:36.141Z,9.50
2022-11-04T20:24:11.538Z,9.07
2022-11-04T20:26:39.471Z,8.40
2022-11-04T20:29:06.957Z,8.03
2022-11-04T20:31:35.653Z,8.57
2022-11-04T20:34:05.007Z,11.53
2022-11-04T20:36:32.076Z,11.10
2022-11-04T20:39:00.399Z,9.93
2022-11-04T20:41:27.761Z,10.20
2022-11-04T20:43:57.309Z,10.33
2022-11-04T20:46:27.384Z,7.57
2022-11-04T20:48:55.275Z,7.10
2022-11-04T20:51:24.814Z,7.47
2022-11-04T20:53:56.115Z,8.13
2022-11-04T20:56:25.197Z,7.00
2022-11-04T20:58:58.578Z,7.43
2022-11-04T21:01:32.687Z,6.53
2022-11-04T21:04:02.029Z,6.87
2022-11-04T21:06:30.770Z,7.07
2022-11-04T21:08:59.208Z,6.60
2022-11-04T21:11:31.926Z,7.50
2022-11-04T21:13:59.488Z,6.67
2022-11-04T21:16:26.901Z,7.27
2022-11-04T21:18:54.502Z,6.87
2022-11-04T21:21:21.138Z,7.47
2022-11-04T21:23:47.987Z,7.77
2022-11-04T21:26:25.882Z,8.60
2022-11-04T21:29:02.154Z,10.30
2022-11-04T21:31:31.266Z,11.13
2022-11-04T21:33:58.674Z,11.47
2022-11-04T21:36:25.667Z,10.50
2022-11-04T21:38:52.421Z,10.17
2022-11-04T21:41:23.092Z,9.53
2022-11-04T21:44:04.053Z,9.83
2022-11-04T21:46:32.368Z,9.60
2022-11-04T21:48:59.693Z,9.37
2022-11-04T21:51:31.472Z,7.77
2022-11-04T21:53:59.402Z,9.20
2022-11-04T21:56:33.030Z,8.27
2022-11-04T21:58:59.792Z,8.03
2022-11-04T22:01:28.591Z,8.10
2022-11-04T22:03:59.340Z,8.00
2022-11-04T22:06:32.358Z,7.60
2022-11-04T22:09:00.575Z,7.70
2022-11-04T22:11:29.930Z,6.83
2022-11-04T22:14:01.365Z,6.43
2022-11-04T22:16:30.748Z,6.00
2022-11-04T22:19:00.320Z,6.13
2022-11-04T22:21:30.181Z,6.50
2022-11-04T22:23:57.626Z,6.50
2022-11-04T22:26:30.110Z,6.30
2022-11-04T22:28:57.515Z,6.10
2022-11-04T22:31:27.128Z,7.10
2022-11-04T22:33:54.492Z,6.30
2022-11-04T22:36:21.541Z,7.20
2022-11-04T22:38:48.240Z,6.73
2022-11-04T22:41:21.106Z,6.03
2022-11-04T22:43:47.846Z,6.00
2022-11-04T22:46:19.036Z,5.87
2022-11-04T22:48:46.285Z,5.73
2022-11-04T22:51:13.502Z,6.70
2022-11-04T22:53:40.754Z,5.33
2022-11-04T22:56:09.765Z,5.10
2022-11-04T22:58:36.712Z,5.20
2022-11-04T23:01:09.581Z,4.97
2022-11-04T23:03:36.533Z,5.80
2022-11-04T23:06:05.194Z,5.20
2022-11-04T23:08:34.016Z,4.87
2022-11-04T23:11:22.904Z,4.73
2022-11-04T23:14:19.826Z,4.30
2022-11-04T23:17:08.168Z,4.40
2022-11-04T23:19:35.271Z,4.33
2022-11-04T23:22:20.342Z,4.17
2022-11-04T23:25:06.094Z,3.73
2022-11-04T23:27:53.312Z,3.90
2022-11-04T23:30:26.393Z,3.83
2022-11-04T23:32:54.682Z,4.00
2022-11-04T23:35:42.368Z,3.93
2022-11-04T23:38:09.703Z,4.73
2022-11-04T23:40:36.502Z,6.60
2022-11-04T23:43:03.220Z,6.20
2022-11-04T23:45:48.462Z,5.23
2022-11-04T23:48:34.288Z,4.80
2022-11-04T23:51:20.186Z,5.10
2022-11-04T23:54:05.933Z,5.17
2022-11-04T23:56:51.298Z,5.57
2022-11-04T23:59:37.522Z,4.93
